Little Horse Creek, North Carolina
Current Conditions -  °F | °C
As of 3:35 AM on Monday 26 Jan 2015 (Local Time) from KGEV Reporting Station
Scattered Clouds Scattered Clouds  
Wind Chill: 37°   Ceiling: Unl
Heat Index: 37°   Visibility: 10mi
Dew Point: 28°   Wind: 0mph
Humidity: 69%   Direction: NA
Pressure: 29.6"   Gusts: NA
Location:  36.524°N, 81.538°W
Report Text: KGEV 260835Z AUTO 00000KT 10SM SCT075 03/M02 A2960 RMK AO2 T00271024
Loading
Personal Weather Stations






























Interactive Weather Map New forecast layout! Learn more

10-Day Weather Forecast

Advertisements
Track Severe Weather on mobile